Time;durP1;ratioP1;P1;durP2;ratioP2;P2;SDS_P1;SDS_P2;PMS_P1;PMS_P2;Temp;Humidity;BMP_temperature;BMP_pressure;BME280_temperature;BME280_humidity;BME280_pressure;Samples;Min_cycle;Max_cycle;Signal;HPM_P1;HPM_P2
2022/05/27 00:00:53;;;;;;;7.32;3.50;;;;;;;;;;5002281;28;20018;-74
2022/05/27 00:03:19;;;;;;;10.98;3.33;;;;;;;;;;5003078;28;20026;-75
2022/05/27 00:05:44;;;;;;;8.80;3.20;;;;;;;;;;4998466;28;20101;-75
2022/05/27 00:08:10;;;;;;;9.35;3.92;;;;;;;;;;4981533;28;20131;-74
2022/05/27 00:10:35;;;;;;;5.93;3.53;;;;;;;;;;4997425;28;20018;-74
2022/05/27 00:13:01;;;;;;;8.95;3.40;;;;;;;;;;4998812;28;20030;-73
2022/05/27 00:15:26;;;;;;;9.23;3.00;;;;;;;;;;4985748;28;20076;-75
2022/05/27 00:17:51;;;;;;;7.80;4.10;;;;;;;;;;5001919;28;20021;-74
2022/05/27 00:20:16;;;;;;;6.75;3.28;;;;;;;;;;4997667;28;20136;-75
2022/05/27 00:22:41;;;;;;;7.57;3.35;;;;;;;;;;5001873;28;20042;-73
2022/05/27 00:25:07;;;;;;;5.28;3.58;;;;;;;;;;4997787;28;20033;-76
2022/05/27 00:27:32;;;;;;;7.20;3.40;;;;;;;;;;5001177;28;20080;-77
2022/05/27 00:29:58;;;;;;;7.73;3.43;;;;;;;;;;5000275;28;20109;-74
2022/05/27 00:32:23;;;;;;;6.72;3.20;;;;;;;;;;5002612;28;20733;-74
2022/05/27 00:34:48;;;;;;;5.20;3.43;;;;;;;;;;5000130;28;20025;-74
2022/05/27 00:37:14;;;;;;;9.73;3.10;;;;;;;;;;5007131;28;20267;-77
2022/05/27 00:39:39;;;;;;;5.38;3.38;;;;;;;;;;5011016;28;20026;-77
2022/05/27 00:42:04;;;;;;;10.97;3.50;;;;;;;;;;5003858;28;20022;-75
2022/05/27 00:44:29;;;;;;;4.35;3.08;;;;;;;;;;4992314;28;20068;-75
2022/05/27 00:46:57;;;;;;;7.75;3.63;;;;;;;;;;4999680;28;20038;-78
2022/05/27 00:49:24;;;;;;;12.52;3.28;;;;;;;;;;4999229;28;20026;-74
2022/05/27 00:51:53;;;;;;;8.18;3.40;;;;;;;;;;4997504;28;20025;-77
2022/05/27 00:54:19;;;;;;;6.68;3.38;;;;;;;;;;4995321;28;20018;-77
2022/05/27 00:56:46;;;;;;;8.32;3.50;;;;;;;;;;4995801;28;20211;-75
2022/05/27 00:59:20;;;;;;;5.10;3.75;;;;;;;;;;4998410;28;20120;-78
2022/05/27 01:01:46;;;;;;;11.50;4.85;;;;;;;;;;4994449;28;20416;-77
2022/05/27 01:04:11;;;;;;;13.10;4.10;;;;;;;;;;4982871;28;20472;-76
2022/05/27 01:06:36;;;;;;;9.18;4.60;;;;;;;;;;5009880;28;20592;-76
2022/05/27 01:09:02;;;;;;;11.57;5.18;;;;;;;;;;5011002;28;20353;-80
2022/05/27 01:11:36;;;;;;;12.85;5.32;;;;;;;;;;4997878;28;20050;-75
2022/05/27 01:14:01;;;;;;;;;;;;;;;;;;4994257;28;20041;-74
2022/05/27 01:16:35;;;;;;;11.23;5.03;;;;;;;;;;4995516;28;19936;-76
2022/05/27 01:22:07;;;;;;;12.40;5.63;;;;;;;;;;4998804;28;20044;-74
2022/05/27 01:24:54;;;;;;;11.73;5.40;;;;;;;;;;4993305;28;20089;-74
2022/05/27 01:27:19;;;;;;;16.95;5.30;;;;;;;;;;4996788;28;20032;-76
2022/05/27 01:30:03;;;;;;;18.73;5.60;;;;;;;;;;4999705;28;20030;-76
2022/05/27 01:32:31;;;;;;;10.65;4.90;;;;;;;;;;5008229;28;20574;-74
2022/05/27 01:35:02;;;;;;;10.43;5.60;;;;;;;;;;5013019;28;20029;-75
2022/05/27 01:37:45;;;;;;;17.02;7.57;;;;;;;;;;5007962;28;20030;-74
2022/05/27 01:40:18;;;;;;;15.32;5.55;;;;;;;;;;4999786;28;20032;-75
2022/05/27 01:42:53;;;;;;;16.08;6.55;;;;;;;;;;5002363;28;20330;-77
2022/05/27 01:45:27;;;;;;;14.38;6.13;;;;;;;;;;5000209;28;20076;-77
2022/05/27 01:47:55;;;;;;;16.35;7.03;;;;;;;;;;4982432;28;20029;-77
2022/05/27 01:50:34;;;;;;;16.45;6.95;;;;;;;;;;4981957;28;20026;-77
2022/05/27 01:53:08;;;;;;;11.88;7.00;;;;;;;;;;5000711;28;20060;-76
2022/05/27 01:55:40;;;;;;;14.05;5.40;;;;;;;;;;4998771;28;20053;-77
2022/05/27 01:58:11;;;;;;;10.57;4.65;;;;;;;;;;4999238;28;20021;-75
2022/05/27 02:00:38;;;;;;;8.43;3.65;;;;;;;;;;4998114;28;20129;-76
2022/05/27 02:03:09;;;;;;;8.85;3.60;;;;;;;;;;5011863;28;20469;-77
2022/05/27 02:05:47;;;;;;;9.60;3.67;;;;;;;;;;4998723;28;20034;-77
2022/05/27 02:08:15;;;;;;;9.63;4.65;;;;;;;;;;4980016;28;20440;-77
2022/05/27 02:10:46;;;;;;;8.95;3.80;;;;;;;;;;5003170;28;20013;-76
2022/05/27 02:13:14;;;;;;;4.80;3.08;;;;;;;;;;5010054;28;20058;-77
2022/05/27 02:15:41;;;;;;;4.97;3.20;;;;;;;;;;4981496;28;20542;-76
2022/05/27 02:18:33;;;;;;;5.88;3.22;;;;;;;;;;4982070;28;20084;-77
2022/05/27 02:21:03;;;;;;;4.65;3.22;;;;;;;;;;4979178;28;20071;-76
2022/05/27 02:23:34;;;;;;;8.45;3.97;;;;;;;;;;5000569;28;20558;-78
2022/05/27 02:26:00;;;;;;;9.25;3.75;;;;;;;;;;4997585;28;20584;-77
2022/05/27 02:28:36;;;;;;;6.40;4.78;;;;;;;;;;4982980;28;20022;-78
2022/05/27 02:31:04;;;;;;;9.05;3.92;;;;;;;;;;4998733;28;20403;-79
2022/05/27 02:36:48;;;;;;;7.18;3.78;;;;;;;;;;4981817;28;20064;-76
2022/05/27 02:39:14;;;;;;;10.15;4.57;;;;;;;;;;5003176;28;20088;-78
2022/05/27 02:41:56;;;;;;;7.88;4.05;;;;;;;;;;4996288;28;20101;-76
2022/05/27 02:44:28;;;;;;;7.97;4.50;;;;;;;;;;5009568;28;20026;-75
2022/05/27 02:47:04;;;;;;;9.15;4.13;;;;;;;;;;4979958;28;20128;-78
2022/05/27 02:49:34;;;;;;;6.80;4.38;;;;;;;;;;4980687;28;20128;-78
2022/05/27 02:52:08;;;;;;;9.05;4.43;;;;;;;;;;4996935;28;20150;-78
2022/05/27 02:54:43;;;;;;;15.27;4.50;;;;;;;;;;4978372;28;20029;-79
2022/05/27 02:57:18;;;;;;;14.27;4.25;;;;;;;;;;4999977;28;20041;-78
2022/05/27 02:59:43;;;;;;;15.55;5.00;;;;;;;;;;4983225;28;20034;-79
2022/05/27 03:02:13;;;;;;;11.57;4.47;;;;;;;;;;4980649;28;20032;-79
2022/05/27 03:04:41;;;;;;;11.65;4.93;;;;;;;;;;5003310;28;20030;-76
2022/05/27 03:07:28;;;;;;;6.65;4.15;;;;;;;;;;4979480;28;20029;-75
2022/05/27 03:09:57;;;;;;;6.40;4.10;;;;;;;;;;5009566;28;20030;-77
2022/05/27 03:12:32;;;;;;;10.60;4.07;;;;;;;;;;4980023;28;20071;-78
2022/05/27 03:14:57;;;;;;;9.90;4.82;;;;;;;;;;4979174;28;20113;-78
2022/05/27 03:17:28;;;;;;;7.95;4.35;;;;;;;;;;4994989;28;20420;-78
2022/05/27 03:19:53;;;;;;;6.63;4.05;;;;;;;;;;4997072;28;20030;-78
2022/05/27 03:22:18;;;;;;;11.77;4.60;;;;;;;;;;4980836;28;20030;-78
2022/05/27 03:24:49;;;;;;;7.57;3.92;;;;;;;;;;4998298;28;20116;-77
2022/05/27 03:27:23;;;;;;;13.25;5.40;;;;;;;;;;5004775;28;20025;-78
2022/05/27 03:29:50;;;;;;;11.88;5.20;;;;;;;;;;4986397;28;20073;-77
2022/05/27 03:32:18;;;;;;;9.35;4.72;;;;;;;;;;4997776;28;20030;-75
2022/05/27 03:35:04;;;;;;;11.30;4.28;;;;;;;;;;4995278;28;20025;-78
2022/05/27 03:37:33;;;;;;;14.27;5.32;;;;;;;;;;4924516;28;20033;-77
2022/05/27 03:40:08;;;;;;;13.00;5.35;;;;;;;;;;5002570;28;20030;-78
2022/05/27 03:42:35;;;;;;;9.95;4.40;;;;;;;;;;5001322;28;20029;-77
2022/05/27 03:45:03;;;;;;;9.45;4.30;;;;;;;;;;4999626;28;20068;-77
2022/05/27 03:47:29;;;;;;;9.93;4.28;;;;;;;;;;4989081;28;20132;-77
2022/05/27 03:49:54;;;;;;;11.57;4.50;;;;;;;;;;4986805;28;20113;-77
2022/05/27 03:52:24;;;;;;;6.38;3.70;;;;;;;;;;4997899;28;20540;-77
2022/05/27 03:54:49;;;;;;;10.02;4.35;;;;;;;;;;4997898;28;20084;-77
2022/05/27 03:57:14;;;;;;;7.53;4.20;;;;;;;;;;4997403;28;20756;-78
2022/05/27 03:59:40;;;;;;;6.00;4.18;;;;;;;;;;4982438;28;20026;-77
2022/05/27 04:02:05;;;;;;;9.25;4.15;;;;;;;;;;4996840;28;20276;-78
2022/05/27 04:04:30;;;;;;;9.23;4.50;;;;;;;;;;4981520;28;20107;-77
2022/05/27 04:06:55;;;;;;;5.37;3.67;;;;;;;;;;4995348;28;20387;-77
2022/05/27 04:09:21;;;;;;;6.60;4.45;;;;;;;;;;4998974;28;20757;-77
2022/05/27 04:11:47;;;;;;;9.95;4.72;;;;;;;;;;4999710;28;20072;-77
2022/05/27 04:14:12;;;;;;;9.73;4.32;;;;;;;;;;4978178;28;20061;-76
2022/05/27 04:16:38;;;;;;;11.05;5.22;;;;;;;;;;4996391;28;20050;-78
2022/05/27 04:19:03;;;;;;;11.00;4.90;;;;;;;;;;4997166;28;20073;-77
2022/05/27 04:21:28;;;;;;;7.63;4.60;;;;;;;;;;4996152;28;20420;-77
2022/05/27 04:23:54;;;;;;;13.95;5.13;;;;;;;;;;4978798;28;20048;-77
2022/05/27 04:26:19;;;;;;;12.23;5.50;;;;;;;;;;4981394;28;20491;-77
2022/05/27 04:28:44;;;;;;;11.45;5.13;;;;;;;;;;4996747;28;22036;-77
2022/05/27 04:31:10;;;;;;;9.18;4.65;;;;;;;;;;4998263;28;20080;-77
2022/05/27 04:33:35;;;;;;;9.70;4.90;;;;;;;;;;4978720;28;20041;-78
2022/05/27 04:36:01;;;;;;;9.52;5.15;;;;;;;;;;4997456;28;20379;-77
2022/05/27 04:38:27;;;;;;;10.13;5.68;;;;;;;;;;4978506;28;20029;-77
2022/05/27 04:40:52;;;;;;;9.27;5.07;;;;;;;;;;4983455;28;20022;-77
2022/05/27 04:43:17;;;;;;;9.55;5.10;;;;;;;;;;5003074;28;20492;-77
2022/05/27 04:45:43;;;;;;;11.38;5.30;;;;;;;;;;5005809;28;20496;-78
2022/05/27 04:48:09;;;;;;;11.32;5.22;;;;;;;;;;5007622;28;20032;-78
2022/05/27 04:50:35;;;;;;;14.30;6.00;;;;;;;;;;5005771;28;20057;-77
2022/05/27 04:53:00;;;;;;;12.60;6.32;;;;;;;;;;5001177;28;20026;-77
2022/05/27 04:55:26;;;;;;;11.27;5.53;;;;;;;;;;5000654;28;20108;-77
2022/05/27 04:57:54;;;;;;;15.23;5.95;;;;;;;;;;4999899;28;20270;-76
2022/05/27 05:00:21;;;;;;;8.90;5.78;;;;;;;;;;5006403;28;20029;-77
2022/05/27 05:02:46;;;;;;;13.90;6.72;;;;;;;;;;5012132;28;22302;-75
2022/05/27 05:05:14;;;;;;;14.27;6.72;;;;;;;;;;4991476;28;20610;-77
2022/05/27 05:07:40;;;;;;;17.40;6.68;;;;;;;;;;4975997;28;20029;-77
2022/05/27 05:10:06;;;;;;;18.08;6.70;;;;;;;;;;4984394;28;20022;-78
2022/05/27 05:12:31;;;;;;;17.17;6.90;;;;;;;;;;4996494;28;20064;-77
2022/05/27 05:14:56;;;;;;;15.82;7.50;;;;;;;;;;5000083;28;20030;-78
2022/05/27 05:17:22;;;;;;;20.15;6.78;;;;;;;;;;4979784;28;20032;-77
2022/05/27 05:19:48;;;;;;;21.23;7.32;;;;;;;;;;5002717;28;20376;-77
2022/05/27 05:22:13;;;;;;;18.83;7.28;;;;;;;;;;5005368;28;20056;-73
2022/05/27 05:24:38;;;;;;;18.45;6.90;;;;;;;;;;5001924;28;20144;-77
2022/05/27 05:27:04;;;;;;;15.55;6.82;;;;;;;;;;4996491;28;20029;-77
2022/05/27 05:29:29;;;;;;;21.77;7.13;;;;;;;;;;4977198;28;20148;-77
2022/05/27 05:31:54;;;;;;;19.52;6.57;;;;;;;;;;5000574;28;20279;-78
2022/05/27 05:34:19;;;;;;;23.20;6.93;;;;;;;;;;5006309;28;20328;-75
2022/05/27 05:36:45;;;;;;;17.20;6.85;;;;;;;;;;4984994;28;20317;-75
2022/05/27 05:39:10;;;;;;;20.50;6.00;;;;;;;;;;4995400;28;20041;-78
2022/05/27 05:41:36;;;;;;;20.97;6.20;;;;;;;;;;4995035;28;20750;-77
2022/05/27 05:44:02;;;;;;;16.98;5.60;;;;;;;;;;4986892;28;20754;-78
2022/05/27 05:46:28;;;;;;;22.17;5.97;;;;;;;;;;4986753;28;20040;-75
2022/05/27 05:48:53;;;;;;;16.85;4.93;;;;;;;;;;4996984;28;20026;-77
2022/05/27 05:51:19;;;;;;;8.63;4.47;;;;;;;;;;4996467;28;20132;-77
2022/05/27 05:53:44;;;;;;;20.63;4.78;;;;;;;;;;4996606;28;20029;-77
2022/05/27 05:56:09;;;;;;;11.10;4.72;;;;;;;;;;4990622;28;20103;-75
2022/05/27 05:58:34;;;;;;;21.25;4.78;;;;;;;;;;4992306;28;20034;-77
2022/05/27 06:00:59;;;;;;;13.75;4.20;;;;;;;;;;4999155;28;20029;-77
2022/05/27 06:03:25;;;;;;;15.20;4.87;;;;;;;;;;4991506;28;20065;-75
2022/05/27 06:05:51;;;;;;;14.95;4.68;;;;;;;;;;4977355;28;20896;-76
2022/05/27 06:08:18;;;;;;;20.00;5.10;;;;;;;;;;4990563;28;20339;-77
2022/05/27 06:10:43;;;;;;;17.95;4.80;;;;;;;;;;4995927;28;20452;-74
2022/05/27 06:13:08;;;;;;;21.20;3.80;;;;;;;;;;4994524;28;20033;-76
2022/05/27 06:15:33;;;;;;;11.20;3.80;;;;;;;;;;4982981;28;20095;-77
2022/05/27 06:17:59;;;;;;;9.17;3.17;;;;;;;;;;4993151;28;20274;-77
2022/05/27 06:20:25;;;;;;;14.45;4.60;;;;;;;;;;4998759;28;20271;-73
2022/05/27 06:22:50;;;;;;;12.20;3.55;;;;;;;;;;4997788;28;20625;-76
2022/05/27 06:25:15;;;;;;;12.43;3.73;;;;;;;;;;4994543;28;20034;-79
2022/05/27 06:27:41;;;;;;;11.63;3.50;;;;;;;;;;5001069;28;20291;-76
2022/05/27 06:35:45;;;;;;;8.70;3.13;;;;;;;;;;4946875;28;20033;-76
2022/05/27 06:38:10;;;;;;;11.88;4.43;;;;;;;;;;4998712;28;20022;-76
2022/05/27 06:40:35;;;;;;;16.98;2.88;;;;;;;;;;5002713;28;20022;-76
2022/05/27 06:43:01;;;;;;;5.27;2.63;;;;;;;;;;5001909;28;20028;-75
2022/05/27 06:45:26;;;;;;;9.60;2.50;;;;;;;;;;4999181;28;20677;-74
2022/05/27 06:47:52;;;;;;;13.55;3.53;;;;;;;;;;4998992;28;20083;-77
2022/05/27 06:50:17;;;;;;;8.27;2.50;;;;;;;;;;4985166;28;20026;-76
2022/05/27 06:52:42;;;;;;;8.57;2.40;;;;;;;;;;5001416;28;20053;-76
2022/05/27 06:55:09;;;;;;;8.05;2.50;;;;;;;;;;4997837;28;20021;-77
2022/05/27 06:57:34;;;;;;;11.30;2.90;;;;;;;;;;4996695;28;20048;-75
2022/05/27 07:00:00;;;;;;;12.38;2.35;;;;;;;;;;5001186;28;20499;-76
2022/05/27 07:02:26;;;;;;;8.60;2.30;;;;;;;;;;4997359;28;20018;-76
2022/05/27 07:04:51;;;;;;;10.23;2.30;;;;;;;;;;4995959;28;20032;-76
2022/05/27 07:07:16;;;;;;;9.55;2.63;;;;;;;;;;4999989;28;20048;-78
2022/05/27 07:09:41;;;;;;;10.75;2.22;;;;;;;;;;4998759;28;20033;-77
2022/05/27 07:12:08;;;;;;;8.65;2.20;;;;;;;;;;4997875;28;20021;-76
2022/05/27 07:14:33;;;;;;;17.20;2.97;;;;;;;;;;4979915;28;20067;-78
2022/05/27 07:16:59;;;;;;;12.00;2.30;;;;;;;;;;4999159;28;20481;-74
2022/05/27 07:19:24;;;;;;;10.85;2.50;;;;;;;;;;4980768;28;20399;-76
2022/05/27 07:21:49;;;;;;;6.65;2.10;;;;;;;;;;4986452;28;20029;-78
2022/05/27 07:24:16;;;;;;;8.88;2.00;;;;;;;;;;4998238;28;20026;-77
2022/05/27 07:26:42;;;;;;;10.13;2.10;;;;;;;;;;4997404;28;20025;-78
2022/05/27 07:29:07;;;;;;;8.98;2.70;;;;;;;;;;4995958;28;20018;-76
2022/05/27 07:31:34;;;;;;;12.63;2.10;;;;;;;;;;4996595;28;20030;-76
2022/05/27 07:34:00;;;;;;;11.50;2.30;;;;;;;;;;4997294;28;20379;-75
2022/05/27 07:36:25;;;;;;;13.83;4.00;;;;;;;;;;4998163;28;20037;-74
2022/05/27 07:38:52;;;;;;;15.77;2.70;;;;;;;;;;5003110;28;20148;-74
2022/05/27 07:41:18;;;;;;;9.68;2.70;;;;;;;;;;4979177;28;20468;-74
2022/05/27 07:43:44;;;;;;;9.05;2.38;;;;;;;;;;4996958;28;20053;-74
2022/05/27 07:46:09;;;;;;;8.73;2.00;;;;;;;;;;5001813;28;20477;-75
2022/05/27 07:48:35;;;;;;;7.60;2.33;;;;;;;;;;5003946;28;20034;-75
2022/05/27 07:51:00;;;;;;;8.10;3.00;;;;;;;;;;4998687;28;20075;-75
2022/05/27 07:53:25;;;;;;;8.63;2.20;;;;;;;;;;4977242;28;20264;-75
2022/05/27 07:55:50;;;;;;;12.40;2.40;;;;;;;;;;4995687;28;20740;-74
2022/05/27 07:58:15;;;;;;;8.52;1.92;;;;;;;;;;4995636;28;20290;-72
2022/05/27 08:00:41;;;;;;;13.00;3.13;;;;;;;;;;4978899;28;20061;-74
2022/05/27 08:03:06;;;;;;;10.18;2.38;;;;;;;;;;4994685;28;20289;-74
2022/05/27 08:05:32;;;;;;;14.03;2.20;;;;;;;;;;4999262;28;20394;-78
2022/05/27 08:07:58;;;;;;;13.20;2.35;;;;;;;;;;4994905;28;20283;-74
2022/05/27 08:10:25;;;;;;;9.18;1.88;;;;;;;;;;4995062;28;20025;-73
2022/05/27 08:12:50;;;;;;;5.68;1.80;;;;;;;;;;4996245;28;20029;-72
2022/05/27 08:15:16;;;;;;;8.95;2.35;;;;;;;;;;5000095;28;20030;-74
2022/05/27 08:17:41;;;;;;;10.60;2.00;;;;;;;;;;4984830;28;20040;-75
2022/05/27 08:20:08;;;;;;;6.40;2.30;;;;;;;;;;4995637;28;20034;-73
2022/05/27 08:22:33;;;;;;;19.63;2.60;;;;;;;;;;4993549;28;20029;-72
2022/05/27 08:24:59;;;;;;;12.30;3.08;;;;;;;;;;4994890;28;20399;-71
2022/05/27 08:27:24;;;;;;;10.40;2.10;;;;;;;;;;4979183;28;20037;-75
2022/05/27 08:29:49;;;;;;;7.07;2.30;;;;;;;;;;4996115;28;20274;-78
2022/05/27 08:32:14;;;;;;;5.82;2.38;;;;;;;;;;4984436;28;20123;-74
2022/05/27 08:38:05;;;;;;;;;;;;;;;;;;4959585;28;20089;-74
2022/05/27 08:40:49;;;;;;;14.90;3.40;;;;;;;;;;4940382;28;19991;-77
2022/05/27 08:43:20;;;;;;;8.75;2.30;;;;;;;;;;4984122;28;20633;-78
2022/05/27 08:45:54;;;;;;;10.52;2.20;;;;;;;;;;4992896;28;20033;-75
2022/05/27 08:48:21;;;;;;;11.20;2.40;;;;;;;;;;4996603;28;20057;-73
2022/05/27 08:50:48;;;;;;;9.60;2.50;;;;;;;;;;4998419;28;20020;-76
2022/05/27 08:53:16;;;;;;;16.75;2.75;;;;;;;;;;4999703;28;20372;-73
2022/05/27 09:01:19;;;;;;;9.80;2.25;;;;;;;;;;4994769;28;20032;-74
2022/05/27 09:04:00;;;;;;;13.63;2.67;;;;;;;;;;4993205;28;20035;-74
2022/05/27 09:06:30;;;;;;;12.93;2.30;;;;;;;;;;4994787;28;20077;-75
2022/05/27 09:08:56;;;;;;;5.53;1.83;;;;;;;;;;5000537;28;20025;-72
2022/05/27 09:11:30;;;;;;;9.97;2.10;;;;;;;;;;4997449;28;20535;-78
2022/05/27 09:14:10;;;;;;;8.75;2.55;;;;;;;;;;4990081;28;20271;-74
2022/05/27 09:16:39;;;;;;;14.93;2.67;;;;;;;;;;4997207;28;20116;-75
2022/05/27 09:19:13;;;;;;;7.35;1.90;;;;;;;;;;4992701;28;20033;-77
2022/05/27 09:21:57;;;;;;;8.50;3.05;;;;;;;;;;4996975;28;20172;-78
2022/05/27 09:24:30;;;;;;;6.47;2.08;;;;;;;;;;5004126;28;20108;-72
2022/05/27 09:27:02;;;;;;;9.38;2.50;;;;;;;;;;5001670;28;20392;-75
2022/05/27 09:29:27;;;;;;;13.25;3.15;;;;;;;;;;4982074;28;20014;-73
2022/05/27 09:32:11;;;;;;;5.97;2.40;;;;;;;;;;4993939;28;20036;-75
2022/05/27 09:34:38;;;;;;;10.60;2.33;;;;;;;;;;4996618;28;20018;-74
2022/05/27 09:37:05;;;;;;;6.18;2.17;;;;;;;;;;4999559;28;20023;-72
2022/05/27 09:39:31;;;;;;;5.85;1.80;;;;;;;;;;4999353;28;20030;-74
2022/05/27 09:42:16;;;;;;;5.70;2.10;;;;;;;;;;5003897;28;20032;-80
2022/05/27 09:44:45;;;;;;;8.98;2.40;;;;;;;;;;4994936;28;20030;-75
2022/05/27 09:47:10;;;;;;;10.93;3.42;;;;;;;;;;4993183;28;20454;-72
2022/05/27 09:49:36;;;;;;;8.02;2.30;;;;;;;;;;4997612;28;20093;-78
2022/05/27 09:52:01;;;;;;;9.80;2.28;;;;;;;;;;4998749;28;20096;-74
2022/05/27 09:54:45;;;;;;;12.68;3.95;;;;;;;;;;5002381;28;20061;-73
2022/05/27 09:57:10;;;;;;;8.48;2.38;;;;;;;;;;5004763;28;20259;-74
2022/05/27 09:59:35;;;;;;;7.95;2.20;;;;;;;;;;5006824;28;20034;-72
2022/05/27 10:02:12;;;;;;;8.68;2.45;;;;;;;;;;4998648;28;20026;-75
2022/05/27 10:04:47;;;;;;;7.70;2.13;;;;;;;;;;4998633;28;20029;-78
2022/05/27 10:07:13;;;;;;;9.85;1.95;;;;;;;;;;5000343;28;20080;-74
2022/05/27 10:09:38;;;;;;;6.68;2.20;;;;;;;;;;5001365;28;20054;-77
2022/05/27 10:12:03;;;;;;;5.57;1.87;;;;;;;;;;5000747;28;20045;-75
2022/05/27 10:14:32;;;;;;;6.97;2.03;;;;;;;;;;4997688;28;20535;-75
2022/05/27 10:17:01;;;;;;;5.90;2.50;;;;;;;;;;5000841;28;20026;-72
2022/05/27 10:19:26;;;;;;;5.53;2.20;;;;;;;;;;4987136;28;20049;-74
2022/05/27 10:21:55;;;;;;;10.35;2.47;;;;;;;;;;5003052;28;20080;-72
2022/05/27 10:24:35;;;;;;;7.47;2.25;;;;;;;;;;4984900;28;20032;-74
2022/05/27 10:27:05;;;;;;;7.13;2.40;;;;;;;;;;5000809;28;20030;-75
2022/05/27 10:29:32;;;;;;;13.27;2.38;;;;;;;;;;5018315;28;20044;-76
2022/05/27 10:31:59;;;;;;;11.40;2.33;;;;;;;;;;4997523;28;20030;-78
2022/05/27 10:34:36;;;;;;;9.60;2.47;;;;;;;;;;4997386;28;20099;-75
2022/05/27 10:37:05;;;;;;;8.50;2.47;;;;;;;;;;4996253;28;20455;-74
2022/05/27 10:39:39;;;;;;;7.97;1.92;;;;;;;;;;5000946;28;20034;-75
2022/05/27 10:42:15;;;;;;;9.23;2.30;;;;;;;;;;5002397;28;20037;-72
2022/05/27 10:44:57;;;;;;;6.30;1.90;;;;;;;;;;4997547;28;20060;-76
2022/05/27 10:47:23;;;;;;;12.50;2.67;;;;;;;;;;5019455;28;20049;-81
2022/05/27 10:49:54;;;;;;;10.77;2.53;;;;;;;;;;5005738;28;20022;-72
2022/05/27 10:52:25;;;;;;;9.05;2.22;;;;;;;;;;5003124;28;20263;-75
2022/05/27 10:54:56;;;;;;;15.02;2.33;;;;;;;;;;5005807;28;20443;-76
2022/05/27 11:03:21;;;;;;;14.02;3.83;;;;;;;;;;5002263;28;20132;-75
2022/05/27 11:05:47;;;;;;;;;;;;;;;;;;4986386;28;20116;-76
2022/05/27 11:08:18;;;;;;;9.30;2.23;;;;;;;;;;4999213;28;19927;-78
2022/05/27 11:10:46;;;;;;;12.07;2.15;;;;;;;;;;5000930;28;20539;-77
2022/05/27 11:15:55;;;;;;;9.40;2.80;;;;;;;;;;4995386;28;20526;-78
2022/05/27 11:18:29;;;;;;;10.32;2.20;;;;;;;;;;5000748;28;20030;-78
2022/05/27 11:20:54;;;;;;;10.63;2.53;;;;;;;;;;5011415;28;20138;-74
2022/05/27 11:23:25;;;;;;;13.23;2.53;;;;;;;;;;4995963;28;20158;-74
2022/05/27 11:25:59;;;;;;;10.45;2.35;;;;;;;;;;4994832;28;20030;-75
2022/05/27 11:28:43;;;;;;;19.08;2.92;;;;;;;;;;4996466;28;20037;-74
2022/05/27 11:31:08;;;;;;;9.50;1.88;;;;;;;;;;4995678;28;20025;-75
2022/05/27 11:33:52;;;;;;;12.53;2.13;;;;;;;;;;4995307;28;20038;-73
2022/05/27 11:36:17;;;;;;;7.47;2.67;;;;;;;;;;5001772;28;20022;-75
2022/05/27 11:39:02;;;;;;;7.70;2.37;;;;;;;;;;4983500;28;20476;-76
2022/05/27 11:41:29;;;;;;;11.88;3.17;;;;;;;;;;4978453;28;20052;-75
2022/05/27 11:43:58;;;;;;;7.25;2.15;;;;;;;;;;4998506;28;20030;-74
2022/05/27 11:46:23;;;;;;;11.43;2.55;;;;;;;;;;4995442;28;20069;-76
2022/05/27 11:48:51;;;;;;;6.70;2.28;;;;;;;;;;4984389;28;20208;-74
2022/05/27 11:51:22;;;;;;;9.07;2.42;;;;;;;;;;5004403;28;20017;-78
2022/05/27 11:54:00;;;;;;;11.20;2.83;;;;;;;;;;5000869;28;20463;-76
2022/05/27 11:56:32;;;;;;;11.50;2.85;;;;;;;;;;5003656;28;20080;-73
2022/05/27 11:58:57;;;;;;;7.70;1.90;;;;;;;;;;4996399;28;20052;-75
2022/05/27 12:01:28;;;;;;;6.93;2.28;;;;;;;;;;4980937;28;20030;-74
2022/05/27 12:04:05;;;;;;;8.98;3.28;;;;;;;;;;4982031;28;20496;-75
2022/05/27 12:06:44;;;;;;;7.70;2.55;;;;;;;;;;5001959;28;20123;-75
2022/05/27 12:09:15;;;;;;;13.52;3.25;;;;;;;;;;4998007;28;20022;-77
2022/05/27 12:11:44;;;;;;;10.63;2.40;;;;;;;;;;4998846;28;20108;-77
2022/05/27 12:14:14;;;;;;;14.77;3.28;;;;;;;;;;4998715;28;20323;-75
2022/05/27 12:16:42;;;;;;;14.77;2.45;;;;;;;;;;4996892;28;20064;-73
2022/05/27 12:19:07;;;;;;;13.43;2.90;;;;;;;;;;4997312;28;20080;-80
2022/05/27 12:21:36;;;;;;;11.77;2.90;;;;;;;;;;4997929;28;20136;-75
2022/05/27 12:24:15;;;;;;;7.57;2.15;;;;;;;;;;4999043;28;20385;-76
2022/05/27 12:26:41;;;;;;;13.00;2.63;;;;;;;;;;5003392;28;20029;-72
2022/05/27 12:29:08;;;;;;;11.13;3.75;;;;;;;;;;4997123;28;20045;-73
2022/05/27 12:31:34;;;;;;;5.80;2.47;;;;;;;;;;4996615;28;20041;-71
2022/05/27 12:34:19;;;;;;;11.93;2.50;;;;;;;;;;5001958;28;20364;-73
2022/05/27 12:36:44;;;;;;;10.27;2.38;;;;;;;;;;5002586;28;20124;-73
2022/05/27 12:39:10;;;;;;;12.30;3.00;;;;;;;;;;4993597;28;20030;-73
2022/05/27 12:41:37;;;;;;;15.77;2.30;;;;;;;;;;5000687;28;20052;-74
2022/05/27 12:44:24;;;;;;;8.82;2.38;;;;;;;;;;4994004;28;20022;-74
2022/05/27 12:46:54;;;;;;;10.20;2.60;;;;;;;;;;4994340;28;20105;-72
2022/05/27 12:49:31;;;;;;;12.73;3.15;;;;;;;;;;4994712;28;22585;-72
2022/05/27 12:51:56;;;;;;;9.55;3.17;;;;;;;;;;5010460;28;20030;-76
2022/05/27 12:54:40;;;;;;;7.43;2.17;;;;;;;;;;4995409;28;20037;-72
2022/05/27 13:03:03;;;;;;;15.43;2.50;;;;;;;;;;4994079;28;20055;-75
2022/05/27 13:05:48;;;;;;;9.48;3.03;;;;;;;;;;5000233;28;20483;-72
2022/05/27 13:08:20;;;;;;;19.35;3.10;;;;;;;;;;4997598;28;20037;-78
2022/05/27 13:10:47;;;;;;;11.50;3.03;;;;;;;;;;4995038;28;20014;-75
2022/05/27 13:13:14;;;;;;;17.65;2.85;;;;;;;;;;4996539;28;20030;-73
2022/05/27 13:15:44;;;;;;;11.05;2.70;;;;;;;;;;4979665;28;20032;-75
2022/05/27 13:18:12;;;;;;;12.80;3.10;;;;;;;;;;4993454;28;20022;-73
2022/05/27 13:20:54;;;;;;;9.95;2.40;;;;;;;;;;4978716;28;20026;-75
2022/05/27 13:23:22;;;;;;;8.23;2.67;;;;;;;;;;4996017;28;20101;-74
2022/05/27 13:25:59;;;;;;;9.77;2.40;;;;;;;;;;4998257;28;20109;-73
2022/05/27 13:28:32;;;;;;;12.45;2.55;;;;;;;;;;5000528;28;20073;-74
2022/05/27 13:31:10;;;;;;;6.65;2.25;;;;;;;;;;4999787;28;20024;-75
2022/05/27 13:33:38;;;;;;;9.85;2.00;;;;;;;;;;4999621;28;20069;-75
2022/05/27 13:36:15;;;;;;;7.18;2.25;;;;;;;;;;5003005;28;20049;-73
2022/05/27 13:38:44;;;;;;;6.57;1.80;;;;;;;;;;4999917;28;20037;-72
2022/05/27 13:41:12;;;;;;;9.18;2.00;;;;;;;;;;4982526;28;20022;-74
2022/05/27 13:43:39;;;;;;;9.20;1.95;;;;;;;;;;5008804;28;20149;-74
2022/05/27 13:46:12;;;;;;;6.40;1.58;;;;;;;;;;5006703;28;20021;-73
2022/05/27 13:48:40;;;;;;;7.60;2.43;;;;;;;;;;5003603;28;20026;-73
2022/05/27 13:51:08;;;;;;;6.47;1.67;;;;;;;;;;5006268;28;20283;-73
2022/05/27 13:53:35;;;;;;;14.43;1.85;;;;;;;;;;5006655;28;20029;-75
2022/05/27 13:56:12;;;;;;;5.25;1.73;;;;;;;;;;5010570;28;20032;-73
2022/05/27 13:58:46;;;;;;;9.95;1.80;;;;;;;;;;5001069;28;20124;-76
2022/05/27 14:01:12;;;;;;;9.93;2.35;;;;;;;;;;4996242;28;20053;-73
2022/05/27 14:03:40;;;;;;;10.73;1.80;;;;;;;;;;5003983;28;20026;-79
2022/05/27 14:06:06;;;;;;;11.30;2.08;;;;;;;;;;5004585;28;20467;-74
2022/05/27 14:08:34;;;;;;;12.57;2.03;;;;;;;;;;4980951;28;20998;-76
2022/05/27 14:10:59;;;;;;;14.82;2.63;;;;;;;;;;4996855;28;20025;-79
2022/05/27 14:13:29;;;;;;;6.05;1.67;;;;;;;;;;4982047;28;20077;-76
2022/05/27 14:15:55;;;;;;;6.93;1.60;;;;;;;;;;4997437;28;20080;-71
2022/05/27 14:18:30;;;;;;;9.57;1.90;;;;;;;;;;4994790;28;20042;-76
2022/05/27 14:23:41;;;;;;;10.68;1.95;;;;;;;;;;4999643;28;20052;-77
2022/05/27 14:26:07;;;;;;;9.07;1.90;;;;;;;;;;4997689;28;20468;-76
2022/05/27 14:28:32;;;;;;;7.50;2.70;;;;;;;;;;4997960;28;20026;-76
2022/05/27 14:31:00;;;;;;;13.70;1.92;;;;;;;;;;4978334;28;20022;-73
2022/05/27 14:33:27;;;;;;;9.63;1.98;;;;;;;;;;4997095;28;21639;-77
2022/05/27 14:35:53;;;;;;;6.70;1.70;;;;;;;;;;4996951;28;20026;-77
2022/05/27 14:38:21;;;;;;;12.88;1.88;;;;;;;;;;4983916;28;20041;-75
2022/05/27 14:40:48;;;;;;;10.95;1.90;;;;;;;;;;4998214;28;20053;-75
2022/05/27 14:43:29;;;;;;;6.75;1.77;;;;;;;;;;5001267;28;20026;-74
2022/05/27 14:45:55;;;;;;;7.10;1.88;;;;;;;;;;4975541;28;20033;-78
2022/05/27 14:48:23;;;;;;;9.75;1.60;;;;;;;;;;4999860;28;20034;-77
2022/05/27 14:50:48;;;;;;;6.70;2.13;;;;;;;;;;5010756;28;20380;-77
2022/05/27 14:53:15;;;;;;;6.83;1.50;;;;;;;;;;5000571;28;20479;-77
2022/05/27 14:55:40;;;;;;;8.25;2.22;;;;;;;;;;4997279;28;20697;-78
2022/05/27 14:58:07;;;;;;;10.95;1.95;;;;;;;;;;4997100;28;20026;-80
2022/05/27 15:00:35;;;;;;;7.57;1.40;;;;;;;;;;4999029;28;20109;-77
2022/05/27 15:03:00;;;;;;;11.13;1.88;;;;;;;;;;5003069;28;20460;-76
2022/05/27 15:05:28;;;;;;;7.82;1.77;;;;;;;;;;4996835;28;20026;-75
2022/05/27 15:07:55;;;;;;;14.13;1.92;;;;;;;;;;4997685;28;20049;-75
2022/05/27 15:10:24;;;;;;;9.25;1.73;;;;;;;;;;4997518;28;20029;-72
2022/05/27 15:12:50;;;;;;;8.18;1.83;;;;;;;;;;5001098;28;20029;-75
2022/05/27 15:15:41;;;;;;;12.75;1.85;;;;;;;;;;5000138;28;20033;-72
2022/05/27 15:18:12;;;;;;;6.72;1.50;;;;;;;;;;4999677;28;20038;-74
2022/05/27 15:20:41;;;;;;;10.65;2.10;;;;;;;;;;4998403;28;20076;-76
2022/05/27 15:23:06;;;;;;;7.45;1.75;;;;;;;;;;4994749;28;20048;-75
2022/05/27 15:25:37;;;;;;;9.25;1.52;;;;;;;;;;5000075;28;20468;-74